Time;durP1;ratioP1;P1;durP2;ratioP2;P2;SDS_P1;SDS_P2;PMS_P1;PMS_P2;Temp;Humidity;BMP_temperature;BMP_pressure;BME280_temperature;BME280_humidity;BME280_pressure;Samples;Min_cycle;Max_cycle;Signal;HPM_P1;HPM_P2
2024/01/19 00:00:10;;;;;;;11.60;4.07;;;;;;;;;;5096541;28;20035;-68
2024/01/19 00:02:36;;;;;;;6.33;3.30;;;;;;;;;;5099253;28;20632;-69
2024/01/19 00:05:03;;;;;;;7.37;3.57;;;;;;;;;;5098417;28;20381;-69
2024/01/19 00:07:28;;;;;;;12.53;3.70;;;;;;;;;;5100121;28;20036;-69
2024/01/19 00:09:53;;;;;;;7.33;3.20;;;;;;;;;;5100856;28;20012;-69
2024/01/19 00:12:19;;;;;;;6.77;2.90;;;;;;;;;;5094990;28;20047;-68
2024/01/19 00:14:44;;;;;;;6.93;2.90;;;;;;;;;;5094098;28;20417;-69
2024/01/19 00:17:09;;;;;;;6.47;3.17;;;;;;;;;;5096378;28;20479;-69
2024/01/19 00:19:35;;;;;;;9.67;3.83;;;;;;;;;;5099462;28;20028;-68
2024/01/19 00:22:00;;;;;;;10.27;3.40;;;;;;;;;;5099789;28;20122;-68
2024/01/19 00:24:25;;;;;;;9.53;3.47;;;;;;;;;;5094292;28;20036;-68
2024/01/19 00:26:51;;;;;;;12.20;3.57;;;;;;;;;;5084835;28;20021;-68
2024/01/19 00:29:17;;;;;;;8.00;3.20;;;;;;;;;;5098036;28;20027;-68
2024/01/19 00:31:46;;;;;;;8.40;3.10;;;;;;;;;;5094511;28;20448;-68
2024/01/19 00:34:13;;;;;;;7.73;3.07;;;;;;;;;;5090831;28;20673;-68
2024/01/19 00:36:38;;;;;;;8.33;3.47;;;;;;;;;;5096273;28;20024;-68
2024/01/19 00:39:04;;;;;;;7.27;2.60;;;;;;;;;;5093535;28;20030;-68
2024/01/19 00:41:29;;;;;;;7.67;2.83;;;;;;;;;;5093677;28;20100;-68
2024/01/19 00:43:55;;;;;;;8.20;2.87;;;;;;;;;;5096343;28;20028;-68
2024/01/19 00:46:20;;;;;;;8.07;2.93;;;;;;;;;;5086142;28;20028;-68
2024/01/19 00:48:45;;;;;;;12.07;3.10;;;;;;;;;;5093959;28;20032;-68
2024/01/19 00:51:11;;;;;;;13.53;3.47;;;;;;;;;;5099576;28;20527;-68
2024/01/19 00:53:36;;;;;;;4.77;2.17;;;;;;;;;;5093722;28;20377;-68
2024/01/19 00:56:03;;;;;;;9.70;3.23;;;;;;;;;;5092895;28;20025;-68
2024/01/19 00:58:29;;;;;;;7.03;2.10;;;;;;;;;;5088748;28;20463;-68
2024/01/19 01:00:55;;;;;;;10.93;2.70;;;;;;;;;;5097998;28;20095;-69
2024/01/19 01:03:24;;;;;;;6.13;2.80;;;;;;;;;;5110472;27;20047;-68
2024/01/19 01:05:49;;;;;;;6.50;2.93;;;;;;;;;;5114969;27;20023;-68
2024/01/19 01:08:15;;;;;;;9.57;2.77;;;;;;;;;;5115248;27;20019;-68
2024/01/19 01:10:40;;;;;;;8.63;2.77;;;;;;;;;;5114303;27;20043;-68
2024/01/19 01:13:06;;;;;;;7.53;3.07;;;;;;;;;;5116432;27;20724;-68
2024/01/19 01:15:31;;;;;;;7.10;2.60;;;;;;;;;;5116568;27;20023;-68
2024/01/19 01:17:57;;;;;;;9.83;3.00;;;;;;;;;;5115856;27;20489;-68
2024/01/19 01:20:22;;;;;;;6.57;2.30;;;;;;;;;;5115558;27;20499;-68
2024/01/19 01:22:47;;;;;;;5.77;2.70;;;;;;;;;;5111139;27;20067;-69
2024/01/19 01:25:12;;;;;;;6.97;2.73;;;;;;;;;;5112480;27;20027;-69
2024/01/19 01:27:38;;;;;;;7.43;2.70;;;;;;;;;;5108126;28;20161;-68
2024/01/19 01:30:07;;;;;;;12.00;3.00;;;;;;;;;;5114700;28;20031;-68
2024/01/19 01:32:32;;;;;;;9.10;3.13;;;;;;;;;;5112283;28;20532;-68
2024/01/19 01:34:58;;;;;;;9.17;2.60;;;;;;;;;;5111326;28;20102;-68
2024/01/19 01:37:23;;;;;;;7.87;2.60;;;;;;;;;;5112146;28;20030;-68
2024/01/19 01:39:48;;;;;;;6.03;2.60;;;;;;;;;;5114635;28;20015;-68
2024/01/19 01:42:13;;;;;;;7.50;2.30;;;;;;;;;;5110739;28;20561;-68
2024/01/19 01:44:39;;;;;;;9.97;3.00;;;;;;;;;;5104088;28;20434;-68
2024/01/19 01:47:04;;;;;;;6.60;2.70;;;;;;;;;;5101516;28;20027;-68
2024/01/19 01:49:30;;;;;;;3.80;1.83;;;;;;;;;;5094920;28;20016;-68
2024/01/19 01:51:55;;;;;;;7.33;2.97;;;;;;;;;;5114991;28;20015;-68
2024/01/19 01:54:20;;;;;;;9.70;2.50;;;;;;;;;;5110559;28;20062;-68
2024/01/19 01:56:46;;;;;;;5.93;2.70;;;;;;;;;;5092330;28;20469;-68
2024/01/19 01:59:12;;;;;;;5.47;2.27;;;;;;;;;;5110309;28;20427;-68
2024/01/19 02:01:37;;;;;;;8.93;2.30;;;;;;;;;;5110125;28;20019;-68
2024/01/19 02:04:02;;;;;;;6.83;2.33;;;;;;;;;;5112485;28;20526;-68
2024/01/19 02:06:28;;;;;;;2.93;1.53;;;;;;;;;;5112272;28;20098;-68
2024/01/19 02:08:53;;;;;;;8.80;2.33;;;;;;;;;;5116448;28;20482;-68
2024/01/19 02:11:19;;;;;;;4.57;2.10;;;;;;;;;;5118114;28;20027;-68
2024/01/19 02:13:44;;;;;;;5.13;1.90;;;;;;;;;;5114886;28;20016;-68
2024/01/19 02:16:09;;;;;;;6.23;2.00;;;;;;;;;;5108719;28;20028;-68
2024/01/19 02:18:34;;;;;;;5.83;2.17;;;;;;;;;;5115926;28;20080;-68
2024/01/19 02:21:00;;;;;;;5.77;2.23;;;;;;;;;;5114136;28;20016;-68
2024/01/19 02:23:26;;;;;;;6.00;1.97;;;;;;;;;;5114146;28;20040;-68
2024/01/19 02:25:52;;;;;;;6.70;1.90;;;;;;;;;;5114282;28;20015;-68
2024/01/19 02:28:18;;;;;;;3.13;1.60;;;;;;;;;;5113808;28;20365;-68
2024/01/19 02:30:44;;;;;;;8.77;1.87;;;;;;;;;;5114542;28;20023;-68
2024/01/19 02:33:09;;;;;;;7.93;2.13;;;;;;;;;;5111934;28;20348;-68
2024/01/19 02:35:34;;;;;;;9.07;2.20;;;;;;;;;;5118242;27;20031;-68
2024/01/19 02:38:00;;;;;;;5.67;2.20;;;;;;;;;;5120720;27;20043;-68
2024/01/19 02:40:26;;;;;;;5.80;2.00;;;;;;;;;;5119946;27;20137;-68
2024/01/19 02:42:51;;;;;;;4.33;2.10;;;;;;;;;;5110416;27;20080;-68
2024/01/19 02:45:17;;;;;;;6.97;2.03;;;;;;;;;;5119240;27;20023;-68
2024/01/19 02:47:42;;;;;;;6.80;2.17;;;;;;;;;;5117028;27;20095;-68
2024/01/19 02:50:07;;;;;;;12.00;2.60;;;;;;;;;;5116223;27;20020;-66
2024/01/19 02:52:33;;;;;;;7.23;2.20;;;;;;;;;;5114604;27;20024;-66
2024/01/19 02:54:59;;;;;;;9.33;2.20;;;;;;;;;;5113114;27;20387;-63
2024/01/19 02:57:24;;;;;;;6.33;2.30;;;;;;;;;;5122671;27;20376;-63
2024/01/19 02:59:49;;;;;;;5.20;2.17;;;;;;;;;;5116110;27;20024;-63
2024/01/19 03:02:14;;;;;;;7.73;2.40;;;;;;;;;;5112987;27;20043;-63
2024/01/19 03:04:40;;;;;;;4.97;2.20;;;;;;;;;;5111816;27;20032;-63
2024/01/19 03:07:05;;;;;;;6.43;2.53;;;;;;;;;;5113626;27;20490;-64
2024/01/19 03:09:30;;;;;;;3.50;1.70;;;;;;;;;;5116823;27;20120;-63
2024/01/19 03:11:55;;;;;;;7.23;2.43;;;;;;;;;;5111833;27;20032;-62
2024/01/19 03:14:20;;;;;;;8.83;3.00;;;;;;;;;;5109933;27;20376;-62
2024/01/19 03:16:46;;;;;;;7.17;2.70;;;;;;;;;;5115984;27;20071;-63
2024/01/19 03:19:11;;;;;;;6.00;3.00;;;;;;;;;;5119584;27;20027;-63
2024/01/19 03:21:36;;;;;;;7.83;2.80;;;;;;;;;;5117193;27;20028;-64
2024/01/19 03:24:02;;;;;;;14.37;4.13;;;;;;;;;;5116652;27;20027;-64
2024/01/19 03:26:27;;;;;;;7.53;3.23;;;;;;;;;;5115387;27;20023;-63
2024/01/19 03:28:53;;;;;;;11.37;4.50;;;;;;;;;;5118077;27;20439;-63
2024/01/19 03:31:19;;;;;;;7.80;4.03;;;;;;;;;;5119446;27;20054;-64
2024/01/19 03:33:44;;;;;;;14.27;4.40;;;;;;;;;;5117640;27;20360;-63
2024/01/19 03:36:09;;;;;;;11.30;4.17;;;;;;;;;;5120306;27;20035;-63
2024/01/19 03:38:34;;;;;;;5.87;3.00;;;;;;;;;;5115317;27;20027;-64
2024/01/19 03:41:00;;;;;;;8.80;3.63;;;;;;;;;;5113083;27;20027;-64
2024/01/19 03:43:26;;;;;;;9.53;3.23;;;;;;;;;;5120687;27;20031;-64
2024/01/19 03:45:51;;;;;;;6.73;2.87;;;;;;;;;;5118761;27;20015;-63
2024/01/19 03:48:16;;;;;;;14.53;2.63;;;;;;;;;;5116288;27;20020;-63
2024/01/19 03:50:42;;;;;;;6.67;2.80;;;;;;;;;;5111918;27;20048;-63
2024/01/19 03:53:07;;;;;;;8.53;3.10;;;;;;;;;;5110800;27;20076;-64
2024/01/19 03:55:32;;;;;;;7.13;2.80;;;;;;;;;;5118513;27;20030;-63
2024/01/19 03:57:57;;;;;;;6.87;3.20;;;;;;;;;;5099292;27;20024;-63
2024/01/19 04:00:23;;;;;;;4.80;2.50;;;;;;;;;;5096572;27;20023;-63
2024/01/19 04:02:48;;;;;;;7.40;2.97;;;;;;;;;;5112044;27;20027;-63
2024/01/19 04:05:13;;;;;;;6.77;3.10;;;;;;;;;;5105830;27;20106;-64
2024/01/19 04:07:38;;;;;;;8.37;3.13;;;;;;;;;;5114527;27;20024;-63
2024/01/19 04:10:04;;;;;;;8.53;2.33;;;;;;;;;;5110077;27;20020;-64
2024/01/19 04:12:30;;;;;;;7.80;2.70;;;;;;;;;;5104084;27;20436;-64
2024/01/19 04:14:55;;;;;;;7.40;2.40;;;;;;;;;;5110279;27;20106;-63
2024/01/19 04:17:21;;;;;;;7.90;2.90;;;;;;;;;;5122589;27;20033;-63
2024/01/19 04:19:46;;;;;;;6.37;2.30;;;;;;;;;;5117087;27;20015;-63
2024/01/19 04:22:11;;;;;;;5.53;2.00;;;;;;;;;;5105124;27;20094;-64
2024/01/19 04:24:37;;;;;;;7.40;2.60;;;;;;;;;;5113273;27;20025;-63
2024/01/19 04:27:02;;;;;;;5.20;2.07;;;;;;;;;;5115912;27;20023;-63
2024/01/19 04:29:27;;;;;;;5.50;2.07;;;;;;;;;;5116887;27;20090;-63
2024/01/19 04:31:53;;;;;;;5.83;2.50;;;;;;;;;;5113825;27;20012;-64
2024/01/19 04:34:18;;;;;;;7.27;3.03;;;;;;;;;;5115944;27;20076;-64
2024/01/19 04:36:45;;;;;;;6.47;2.70;;;;;;;;;;5118553;27;20023;-64
2024/01/19 04:39:11;;;;;;;7.37;3.57;;;;;;;;;;5112253;27;20020;-64
2024/01/19 04:41:36;;;;;;;4.60;2.60;;;;;;;;;;5114394;27;20025;-63
2024/01/19 04:44:01;;;;;;;7.10;2.30;;;;;;;;;;5108208;27;20030;-63
2024/01/19 04:46:27;;;;;;;9.60;3.07;;;;;;;;;;5114084;27;20480;-64
2024/01/19 04:48:52;;;;;;;7.63;3.70;;;;;;;;;;5113289;27;20104;-64
2024/01/19 04:51:17;;;;;;;7.03;3.67;;;;;;;;;;5120823;27;20034;-64
2024/01/19 04:53:42;;;;;;;9.73;3.60;;;;;;;;;;5110618;27;20015;-64
2024/01/19 04:56:08;;;;;;;8.60;3.03;;;;;;;;;;5117535;27;20030;-64
2024/01/19 04:58:34;;;;;;;10.47;3.90;;;;;;;;;;5111266;27;20559;-64
2024/01/19 05:01:00;;;;;;;8.33;3.80;;;;;;;;;;5095243;27;20682;-63
2024/01/19 05:03:25;;;;;;;7.47;3.57;;;;;;;;;;5115226;27;20094;-65
2024/01/19 05:05:50;;;;;;;6.00;3.43;;;;;;;;;;5116018;27;20024;-64
2024/01/19 05:08:16;;;;;;;6.60;3.10;;;;;;;;;;5113584;27;20040;-63
2024/01/19 05:10:41;;;;;;;11.77;3.93;;;;;;;;;;5105659;27;20016;-63
2024/01/19 05:13:06;;;;;;;8.43;3.50;;;;;;;;;;5099523;27;20019;-63
2024/01/19 05:15:31;;;;;;;7.80;3.93;;;;;;;;;;5119933;27;20126;-64
2024/01/19 05:17:57;;;;;;;8.33;3.30;;;;;;;;;;5111514;27;20025;-63
2024/01/19 05:20:23;;;;;;;6.30;3.43;;;;;;;;;;5109222;28;20031;-63
2024/01/19 05:22:48;;;;;;;7.80;4.10;;;;;;;;;;5098244;27;20498;-63
2024/01/19 05:25:18;;;;;;;6.77;3.63;;;;;;;;;;5115647;27;20107;-62
2024/01/19 05:27:43;;;;;;;10.60;4.17;;;;;;;;;;5106441;27;20423;-63
2024/01/19 05:30:08;;;;;;;8.67;3.43;;;;;;;;;;5103346;27;20087;-63
2024/01/19 05:32:34;;;;;;;12.13;4.17;;;;;;;;;;5100072;27;20028;-63
2024/01/19 05:34:59;;;;;;;9.60;4.37;;;;;;;;;;5111724;28;20035;-63
2024/01/19 05:37:24;;;;;;;9.17;4.20;;;;;;;;;;5094928;28;20035;-63
2024/01/19 05:39:50;;;;;;;10.40;4.97;;;;;;;;;;5103771;28;20039;-63
2024/01/19 05:42:15;;;;;;;9.17;4.73;;;;;;;;;;5113723;28;20110;-63
2024/01/19 05:44:41;;;;;;;9.93;4.53;;;;;;;;;;5118769;28;20051;-63
2024/01/19 05:47:06;;;;;;;7.13;3.97;;;;;;;;;;5114426;28;20024;-64
2024/01/19 05:49:32;;;;;;;9.87;4.23;;;;;;;;;;5119512;28;20353;-64
2024/01/19 05:51:57;;;;;;;7.87;3.80;;;;;;;;;;5113799;28;20036;-65
2024/01/19 05:54:22;;;;;;;12.53;4.77;;;;;;;;;;5117220;28;20372;-64
2024/01/19 05:56:48;;;;;;;11.23;4.67;;;;;;;;;;5110131;28;20062;-64
2024/01/19 05:59:13;;;;;;;11.33;4.37;;;;;;;;;;5115349;28;20526;-64
2024/01/19 06:01:38;;;;;;;6.30;3.17;;;;;;;;;;5115204;28;20030;-64
2024/01/19 06:04:04;;;;;;;9.23;3.77;;;;;;;;;;5094898;28;20026;-64
2024/01/19 06:06:29;;;;;;;9.93;4.87;;;;;;;;;;5089219;28;20028;-64
2024/01/19 06:08:54;;;;;;;7.97;3.20;;;;;;;;;;5087683;28;20474;-64
2024/01/19 06:11:19;;;;;;;9.13;3.30;;;;;;;;;;5100073;28;20020;-64
2024/01/19 06:13:46;;;;;;;11.00;4.00;;;;;;;;;;5098042;28;20077;-64
2024/01/19 06:16:12;;;;;;;11.47;3.97;;;;;;;;;;5092080;28;20020;-64
2024/01/19 06:18:37;;;;;;;6.33;2.80;;;;;;;;;;5093770;28;20052;-65
2024/01/19 06:21:02;;;;;;;9.40;3.10;;;;;;;;;;5095140;28;20055;-64
2024/01/19 06:23:28;;;;;;;14.70;4.73;;;;;;;;;;5097484;28;20074;-64
2024/01/19 06:25:53;;;;;;;6.33;2.93;;;;;;;;;;5093576;28;20035;-64
2024/01/19 06:28:19;;;;;;;7.47;4.00;;;;;;;;;;5093672;28;20430;-64
2024/01/19 06:30:45;;;;;;;8.23;3.70;;;;;;;;;;5089450;28;20020;-63
2024/01/19 06:33:10;;;;;;;7.27;3.67;;;;;;;;;;5094356;28;20031;-64
2024/01/19 06:35:36;;;;;;;6.27;3.47;;;;;;;;;;5096224;28;20487;-63
2024/01/19 06:38:01;;;;;;;7.50;3.63;;;;;;;;;;5089830;28;20511;-64
2024/01/19 06:40:26;;;;;;;10.10;3.83;;;;;;;;;;5094219;28;20059;-64
2024/01/19 06:42:51;;;;;;;9.73;4.50;;;;;;;;;;5098049;28;20035;-64
2024/01/19 06:45:17;;;;;;;6.40;2.93;;;;;;;;;;5106608;28;20020;-64
2024/01/19 06:47:42;;;;;;;8.53;3.63;;;;;;;;;;5094845;28;20102;-64
2024/01/19 06:50:08;;;;;;;10.90;4.40;;;;;;;;;;5091767;28;20033;-64
2024/01/19 06:52:33;;;;;;;11.70;4.00;;;;;;;;;;5100585;28;20103;-64
2024/01/19 06:54:58;;;;;;;6.97;3.50;;;;;;;;;;5099305;28;20032;-65
2024/01/19 06:57:24;;;;;;;12.57;4.43;;;;;;;;;;5103665;28;20024;-64
2024/01/19 06:59:49;;;;;;;13.00;5.10;;;;;;;;;;5096569;28;20391;-63
2024/01/19 07:02:15;;;;;;;6.23;3.37;;;;;;;;;;5096921;28;20059;-64
2024/01/19 07:04:40;;;;;;;12.07;4.53;;;;;;;;;;5098238;28;20541;-64
2024/01/19 07:07:06;;;;;;;10.10;4.97;;;;;;;;;;5096900;28;20023;-63
2024/01/19 07:09:31;;;;;;;10.87;6.00;;;;;;;;;;5097399;28;20031;-63
2024/01/19 07:11:56;;;;;;;10.30;4.73;;;;;;;;;;5099473;28;20401;-64
2024/01/19 07:14:22;;;;;;;10.77;5.33;;;;;;;;;;5099031;28;20468;-64
2024/01/19 07:16:47;;;;;;;10.17;5.33;;;;;;;;;;5094386;28;20059;-64
2024/01/19 07:19:12;;;;;;;16.63;6.47;;;;;;;;;;5094463;28;20422;-63
2024/01/19 07:21:38;;;;;;;11.23;6.43;;;;;;;;;;5097221;28;20032;-64
2024/01/19 07:24:04;;;;;;;15.20;7.43;;;;;;;;;;5098330;28;20115;-63
2024/01/19 07:26:29;;;;;;;13.97;6.87;;;;;;;;;;5091107;28;20020;-64
2024/01/19 07:28:54;;;;;;;17.60;8.07;;;;;;;;;;5088560;28;20026;-64
2024/01/19 07:31:19;;;;;;;12.97;6.80;;;;;;;;;;5100926;28;20023;-64
2024/01/19 07:33:45;;;;;;;17.90;8.17;;;;;;;;;;5096166;28;20380;-64
2024/01/19 07:36:11;;;;;;;19.50;9.17;;;;;;;;;;5089450;28;20470;-67
2024/01/19 07:38:36;;;;;;;15.53;7.93;;;;;;;;;;5084262;28;20115;-68
2024/01/19 07:41:02;;;;;;;18.03;8.43;;;;;;;;;;5097710;28;20123;-67
2024/01/19 07:43:27;;;;;;;19.53;9.77;;;;;;;;;;5095324;28;20027;-67
2024/01/19 07:45:52;;;;;;;12.10;6.33;;;;;;;;;;5096178;28;20023;-67
2024/01/19 07:48:17;;;;;;;22.23;10.83;;;;;;;;;;5088749;28;20126;-67
2024/01/19 07:50:43;;;;;;;19.87;10.80;;;;;;;;;;5100653;28;20027;-67
2024/01/19 07:53:08;;;;;;;24.53;11.50;;;;;;;;;;5099625;28;20384;-67
2024/01/19 07:55:33;;;;;;;23.17;10.53;;;;;;;;;;5097631;28;20071;-67
2024/01/19 07:58:01;;;;;;;23.43;10.60;;;;;;;;;;5093098;28;20035;-68
2024/01/19 08:00:26;;;;;;;23.57;10.57;;;;;;;;;;5094068;28;20443;-68
2024/01/19 08:02:51;;;;;;;26.67;12.40;;;;;;;;;;5100390;28;20083;-68
2024/01/19 08:05:16;;;;;;;20.37;10.07;;;;;;;;;;5099755;28;20037;-67
2024/01/19 08:07:42;;;;;;;26.33;9.97;;;;;;;;;;5094335;28;20369;-67
2024/01/19 08:10:07;;;;;;;22.83;10.17;;;;;;;;;;5095696;28;20447;-68
2024/01/19 08:12:33;;;;;;;21.53;10.57;;;;;;;;;;5097050;28;20023;-68
2024/01/19 08:14:58;;;;;;;16.77;8.40;;;;;;;;;;5098174;28;20032;-67
2024/01/19 08:17:23;;;;;;;19.73;9.30;;;;;;;;;;5098485;28;20028;-67
2024/01/19 08:19:49;;;;;;;21.53;9.27;;;;;;;;;;5096389;28;20027;-68
2024/01/19 08:22:14;;;;;;;22.70;9.80;;;;;;;;;;5096543;28;20025;-68
2024/01/19 08:24:39;;;;;;;16.73;9.13;;;;;;;;;;5090489;28;20039;-67
2024/01/19 08:27:05;;;;;;;17.40;9.07;;;;;;;;;;5097640;28;20024;-68
2024/01/19 08:29:32;;;;;;;21.70;10.17;;;;;;;;;;5095481;28;20032;-68
2024/01/19 08:31:58;;;;;;;20.23;9.90;;;;;;;;;;5093296;28;20223;-68
2024/01/19 08:34:23;;;;;;;15.47;7.00;;;;;;;;;;5093699;28;20028;-68
2024/01/19 08:36:48;;;;;;;16.10;9.27;;;;;;;;;;5094765;28;20046;-67
2024/01/19 08:39:14;;;;;;;16.17;8.47;;;;;;;;;;5098645;28;20108;-68
2024/01/19 08:41:42;;;;;;;18.00;8.90;;;;;;;;;;5099460;28;20036;-68
2024/01/19 08:44:08;;;;;;;18.53;9.10;;;;;;;;;;5087505;28;20036;-68
2024/01/19 08:46:34;;;;;;;17.17;6.70;;;;;;;;;;5084931;28;20027;-68
2024/01/19 08:49:00;;;;;;;18.17;7.93;;;;;;;;;;5086318;28;20027;-68
2024/01/19 08:51:28;;;;;;;15.00;7.97;;;;;;;;;;5095495;28;20107;-68
2024/01/19 08:53:53;;;;;;;16.50;7.87;;;;;;;;;;5090262;28;20021;-68
2024/01/19 08:56:20;;;;;;;18.30;7.27;;;;;;;;;;5090177;28;20169;-68
2024/01/19 08:58:46;;;;;;;12.50;6.17;;;;;;;;;;5091933;28;20035;-68
2024/01/19 09:01:15;;;;;;;11.60;6.47;;;;;;;;;;5098607;28;20048;-68
2024/01/19 09:03:41;;;;;;;9.10;5.00;;;;;;;;;;5114675;27;20046;-69
2024/01/19 09:06:06;;;;;;;12.63;6.70;;;;;;;;;;5115192;27;20027;-68
2024/01/19 09:08:31;;;;;;;11.00;5.43;;;;;;;;;;5108791;27;20026;-68
2024/01/19 09:10:56;;;;;;;14.07;7.00;;;;;;;;;;5116530;27;20027;-67
2024/01/19 09:13:22;;;;;;;14.03;5.53;;;;;;;;;;5122213;27;20023;-68
2024/01/19 09:15:47;;;;;;;8.10;5.03;;;;;;;;;;5110667;27;20084;-67
2024/01/19 09:18:12;;;;;;;10.87;6.03;;;;;;;;;;5108760;27;20124;-67
2024/01/19 09:20:37;;;;;;;8.77;4.00;;;;;;;;;;5115134;27;20035;-67
2024/01/19 09:23:03;;;;;;;16.43;6.17;;;;;;;;;;5110504;27;20528;-67
2024/01/19 09:25:28;;;;;;;15.20;6.80;;;;;;;;;;5117447;27;20065;-67
2024/01/19 09:27:54;;;;;;;11.17;5.50;;;;;;;;;;5118517;27;20033;-67
2024/01/19 09:30:19;;;;;;;9.13;5.37;;;;;;;;;;5114689;27;20023;-67
2024/01/19 09:32:44;;;;;;;14.37;6.43;;;;;;;;;;5113592;27;20022;-67
2024/01/19 09:35:09;;;;;;;13.50;6.10;;;;;;;;;;5114561;27;20043;-67
2024/01/19 09:37:35;;;;;;;6.97;4.03;;;;;;;;;;5116691;28;20058;-67
2024/01/19 09:40:00;;;;;;;10.83;5.70;;;;;;;;;;5118829;28;20088;-67
2024/01/19 09:42:30;;;;;;;10.47;5.50;;;;;;;;;;5113460;28;20043;-68
2024/01/19 09:45:04;;;;;;;11.80;4.83;;;;;;;;;;5109937;27;20023;-67
2024/01/19 09:47:46;;;;;;;10.10;4.70;;;;;;;;;;5123982;27;20043;-67
2024/01/19 09:50:15;;;;;;;12.53;5.97;;;;;;;;;;5109190;27;20533;-67
2024/01/19 09:52:42;;;;;;;9.40;5.07;;;;;;;;;;5113521;27;20442;-67
2024/01/19 09:55:08;;;;;;;12.07;5.37;;;;;;;;;;5112896;27;20031;-64
2024/01/19 09:57:34;;;;;;;12.17;5.83;;;;;;;;;;5116371;27;21970;-67
2024/01/19 10:00:00;;;;;;;17.63;5.80;;;;;;;;;;5098826;28;20108;-67
2024/01/19 10:02:26;;;;;;;9.93;3.77;;;;;;;;;;5117097;27;20048;-67
2024/01/19 10:04:53;;;;;;;9.90;4.90;;;;;;;;;;5113246;27;20035;-67
2024/01/19 10:07:19;;;;;;;10.80;4.53;;;;;;;;;;5113391;27;20110;-67
2024/01/19 10:09:44;;;;;;;8.63;4.00;;;;;;;;;;5124645;27;20039;-67
2024/01/19 10:12:10;;;;;;;9.17;4.83;;;;;;;;;;5121508;27;20051;-67
2024/01/19 10:14:36;;;;;;;7.73;4.20;;;;;;;;;;5113870;27;20130;-67
2024/01/19 10:17:02;;;;;;;11.50;5.00;;;;;;;;;;5117114;27;20091;-67
2024/01/19 10:19:28;;;;;;;14.23;5.13;;;;;;;;;;5124577;27;20079;-67
2024/01/19 10:21:53;;;;;;;11.87;5.43;;;;;;;;;;5123441;27;20031;-67
2024/01/19 10:24:19;;;;;;;10.03;4.83;;;;;;;;;;5119090;27;20073;-67
2024/01/19 10:26:47;;;;;;;15.17;4.37;;;;;;;;;;5113477;27;20030;-67
2024/01/19 10:29:16;;;;;;;7.07;2.87;;;;;;;;;;5120758;27;20357;-67
2024/01/19 10:31:42;;;;;;;9.20;3.60;;;;;;;;;;5117579;27;20103;-67
2024/01/19 10:34:19;;;;;;;7.73;3.63;;;;;;;;;;5120841;27;20523;-68
2024/01/19 10:36:45;;;;;;;7.90;3.33;;;;;;;;;;5121831;27;20078;-67
2024/01/19 10:39:20;;;;;;;7.47;3.40;;;;;;;;;;5116844;27;20040;-67
2024/01/19 10:41:46;;;;;;;10.47;3.50;;;;;;;;;;5112477;27;20030;-68
2024/01/19 10:44:19;;;;;;;13.30;4.20;;;;;;;;;;5114867;27;20027;-67
2024/01/19 10:46:45;;;;;;;8.20;3.77;;;;;;;;;;5123434;27;20562;-67
2024/01/19 10:49:11;;;;;;;9.53;3.07;;;;;;;;;;5114095;27;20088;-67
2024/01/19 10:51:44;;;;;;;14.47;4.07;;;;;;;;;;5108562;27;20024;-67
2024/01/19 10:54:15;;;;;;;17.90;3.93;;;;;;;;;;5109477;27;20636;-67
2024/01/19 10:56:42;;;;;;;6.30;2.38;;;;;;;;;;5119579;27;20031;-67
2024/01/19 10:59:11;;;;;;;6.60;2.63;;;;;;;;;;5116965;27;20051;-67
2024/01/19 11:01:36;;;;;;;7.70;2.30;;;;;;;;;;5111045;27;20384;-67
2024/01/19 11:04:02;;;;;;;7.53;3.30;;;;;;;;;;5106384;27;20024;-67
2024/01/19 11:06:27;;;;;;;5.00;1.63;;;;;;;;;;5103655;27;20031;-66
2024/01/19 11:08:52;;;;;;;11.47;3.00;;;;;;;;;;5122177;27;20023;-66
2024/01/19 11:11:20;;;;;;;4.73;2.27;;;;;;;;;;5113383;27;20031;-66
2024/01/19 11:13:46;;;;;;;6.93;2.30;;;;;;;;;;5111538;27;20026;-66
2024/01/19 11:16:13;;;;;;;6.17;2.67;;;;;;;;;;5110499;27;20023;-67
2024/01/19 11:18:38;;;;;;;5.43;2.57;;;;;;;;;;5120095;27;20031;-65
2024/01/19 11:21:04;;;;;;;10.50;3.20;;;;;;;;;;5117450;27;20115;-66
2024/01/19 11:23:30;;;;;;;6.23;2.30;;;;;;;;;;5114845;27;20051;-66
2024/01/19 11:26:05;;;;;;;6.13;2.17;;;;;;;;;;5109389;27;20022;-66
2024/01/19 11:28:35;;;;;;;10.57;2.77;;;;;;;;;;5121514;27;20024;-67
2024/01/19 11:31:14;;;;;;;9.10;2.30;;;;;;;;;;5118001;27;20024;-66
2024/01/19 11:33:40;;;;;;;6.90;2.30;;;;;;;;;;5115238;27;20028;-67
2024/01/19 11:36:05;;;;;;;9.90;3.17;;;;;;;;;;5107148;27;20494;-66
2024/01/19 11:38:40;;;;;;;9.93;2.80;;;;;;;;;;5106274;27;20032;-66
2024/01/19 11:41:05;;;;;;;10.33;2.10;;;;;;;;;;5114623;27;20030;-66
2024/01/19 11:43:40;;;;;;;9.67;2.77;;;;;;;;;;5115008;27;20031;-66
2024/01/19 11:46:10;;;;;;;7.67;2.20;;;;;;;;;;5115744;27;20731;-67
2024/01/19 11:48:42;;;;;;;5.97;2.43;;;;;;;;;;5114041;27;20111;-66
2024/01/19 11:51:08;;;;;;;4.80;1.63;;;;;;;;;;5114802;27;20355;-66
2024/01/19 11:53:52;;;;;;;6.83;2.10;;;;;;;;;;5121293;27;20023;-66
2024/01/19 11:56:21;;;;;;;5.53;2.03;;;;;;;;;;5114059;27;20034;-66
2024/01/19 11:58:47;;;;;;;7.60;2.37;;;;;;;;;;5111217;27;20034;-66
2024/01/19 12:01:12;;;;;;;8.20;2.47;;;;;;;;;;5116298;27;20028;-66
2024/01/19 12:03:38;;;;;;;9.83;2.97;;;;;;;;;;5119353;27;20055;-66
2024/01/19 12:06:05;;;;;;;4.67;2.07;;;;;;;;;;5118581;27;20035;-66
2024/01/19 12:08:31;;;;;;;13.20;2.27;;;;;;;;;;5113551;27;20051;-66
2024/01/19 12:11:00;;;;;;;11.67;2.13;;;;;;;;;;5110077;27;20062;-66
2024/01/19 12:13:25;;;;;;;6.80;2.13;;;;;;;;;;5105376;27;20027;-67
2024/01/19 12:15:51;;;;;;;8.70;3.10;;;;;;;;;;5111231;27;20035;-66
2024/01/19 12:18:16;;;;;;;8.30;2.03;;;;;;;;;;5115031;27;20103;-66
2024/01/19 12:20:43;;;;;;;8.57;2.90;;;;;;;;;;5111990;27;20030;-67
2024/01/19 12:23:09;;;;;;;6.83;2.30;;;;;;;;;;5107770;27;20036;-66
2024/01/19 12:25:34;;;;;;;11.50;2.97;;;;;;;;;;5111530;27;20646;-67
2024/01/19 12:28:04;;;;;;;6.07;2.30;;;;;;;;;;5117965;27;20019;-66
2024/01/19 12:30:33;;;;;;;7.00;2.30;;;;;;;;;;5107645;27;20018;-66
2024/01/19 12:32:58;;;;;;;10.80;3.00;;;;;;;;;;5111329;27;20081;-69
2024/01/19 12:35:23;;;;;;;9.10;2.67;;;;;;;;;;5113205;27;20027;-69
2024/01/19 12:37:49;;;;;;;10.83;3.00;;;;;;;;;;5114329;27;20031;-69
2024/01/19 12:40:18;;;;;;;8.13;3.60;;;;;;;;;;5118812;27;20091;-69
2024/01/19 12:42:43;;;;;;;8.23;2.47;;;;;;;;;;5112347;27;20200;-69
2024/01/19 12:45:11;;;;;;;6.83;2.53;;;;;;;;;;5104968;27;20513;-69
2024/01/19 12:47:40;;;;;;;14.30;2.87;;;;;;;;;;5111779;27;20042;-69
2024/01/19 12:50:06;;;;;;;8.40;2.67;;;;;;;;;;5116631;27;20561;-69
2024/01/19 12:52:31;;;;;;;9.63;2.67;;;;;;;;;;5118127;27;20024;-69
2024/01/19 12:54:56;;;;;;;9.03;3.17;;;;;;;;;;5107825;27;20636;-68
2024/01/19 12:57:22;;;;;;;9.60;2.50;;;;;;;;;;5097677;28;20123;-69
2024/01/19 13:00:06;;;;;;;8.43;2.80;;;;;;;;;;5117452;27;20482;-69
2024/01/19 13:02:31;;;;;;;10.83;3.07;;;;;;;;;;5116430;27;20044;-69
2024/01/19 13:04:56;;;;;;;11.53;3.93;;;;;;;;;;5118320;27;20164;-68
2024/01/19 13:07:22;;;;;;;9.47;3.27;;;;;;;;;;5108791;27;20387;-69
2024/01/19 13:09:59;;;;;;;11.50;3.80;;;;;;;;;;5110175;27;20055;-67
2024/01/19 13:12:24;;;;;;;8.60;3.60;;;;;;;;;;5113543;27;20548;-66
2024/01/19 13:14:49;;;;;;;10.07;3.53;;;;;;;;;;5113877;27;20023;-66
2024/01/19 13:17:22;;;;;;;9.53;3.90;;;;;;;;;;5100593;27;20466;-66
2024/01/19 13:19:47;;;;;;;10.37;3.43;;;;;;;;;;5110317;27;20058;-66
2024/01/19 13:22:13;;;;;;;9.23;3.13;;;;;;;;;;5104013;27;20059;-66
2024/01/19 13:24:38;;;;;;;13.03;3.77;;;;;;;;;;5120229;27;20032;-66
2024/01/19 13:27:04;;;;;;;9.33;3.70;;;;;;;;;;5111226;28;20522;-66
2024/01/19 13:29:29;;;;;;;11.23;4.00;;;;;;;;;;5106886;28;20522;-66
2024/01/19 13:31:55;;;;;;;7.87;3.57;;;;;;;;;;5111582;27;20038;-66
2024/01/19 13:34:26;;;;;;;13.30;3.93;;;;;;;;;;5106668;28;20027;-66
2024/01/19 13:36:51;;;;;;;7.18;2.95;;;;;;;;;;5118923;27;20429;-67
2024/01/19 13:39:17;;;;;;;14.00;4.30;;;;;;;;;;5114469;28;20026;-67
2024/01/19 13:41:42;;;;;;;13.77;4.50;;;;;;;;;;5107383;28;20107;-67
2024/01/19 13:44:07;;;;;;;10.63;4.07;;;;;;;;;;5112387;28;20031;-66
2024/01/19 13:46:33;;;;;;;12.60;3.90;;;;;;;;;;5115264;28;20468;-67
2024/01/19 13:48:58;;;;;;;7.30;3.13;;;;;;;;;;5108943;28;20031;-67
2024/01/19 13:51:23;;;;;;;16.73;4.03;;;;;;;;;;5113134;28;20043;-66
2024/01/19 13:53:49;;;;;;;11.03;3.90;;;;;;;;;;5115128;28;20015;-66
2024/01/19 13:56:15;;;;;;;8.63;3.30;;;;;;;;;;5097986;28;20023;-66
2024/01/19 13:58:40;;;;;;;10.53;3.40;;;;;;;;;;5116265;28;20016;-67
2024/01/19 14:01:06;;;;;;;12.17;3.80;;;;;;;;;;5105193;28;20024;-67
2024/01/19 14:03:32;;;;;;;10.43;4.90;;;;;;;;;;5116043;28;20043;-67
2024/01/19 14:05:57;;;;;;;10.37;4.97;;;;;;;;;;5118694;28;20088;-66
2024/01/19 14:08:23;;;;;;;7.03;3.43;;;;;;;;;;5109479;28;20427;-67
2024/01/19 14:10:49;;;;;;;8.53;3.87;;;;;;;;;;5104298;28;20012;-66
2024/01/19 14:13:15;;;;;;;7.00;3.17;;;;;;;;;;5116093;28;20031;-67
2024/01/19 14:15:40;;;;;;;9.67;4.43;;;;;;;;;;5116409;28;20023;-66
2024/01/19 14:18:06;;;;;;;10.40;4.67;;;;;;;;;;5110209;28;20061;-67
2024/01/19 14:20:31;;;;;;;15.87;5.70;;;;;;;;;;5114533;28;20071;-67
2024/01/19 14:22:56;;;;;;;9.03;3.53;;;;;;;;;;5118312;28;20088;-66
2024/01/19 14:25:21;;;;;;;8.70;3.10;;;;;;;;;;5111978;28;20036;-67
2024/01/19 14:27:47;;;;;;;9.23;3.90;;;;;;;;;;5110991;28;20024;-66
2024/01/19 14:30:12;;;;;;;8.37;3.10;;;;;;;;;;5103343;28;20079;-66